Time;durP1;ratioP1;P1;durP2;ratioP2;P2;SDS_P1;SDS_P2;PMS_P1;PMS_P2;Temp;Humidity;BMP_temperature;BMP_pressure;BME280_temperature;BME280_humidity;BME280_pressure;Samples;Min_cycle;Max_cycle;Signal;HPM_P1;HPM_P2
2023/03/04 00:01:36;;;;;;;6.38;1.48;;;;;;;18.60;27.42;102588.03;16111491;19;129610;-47
2023/03/04 00:06:57;;;;;;;4.22;1.08;;;;;;;18.57;27.55;102587.59;16117394;19;129614;-44
2023/03/04 00:12:19;;;;;;;4.18;1.55;;;;;;;18.52;27.76;102587.34;16114554;19;129712;-47
2023/03/04 00:17:41;;;;;;;4.03;1.08;;;;;;;18.49;27.48;102584.97;16111287;19;129665;-43
2023/03/04 00:23:03;;;;;;;7.78;1.27;;;;;;;18.45;27.96;102592.84;16113101;19;129204;-43
2023/03/04 00:28:24;;;;;;;4.97;1.20;;;;;;;18.42;27.65;102594.13;16113526;19;130347;-42
2023/03/04 00:33:46;;;;;;;3.17;1.02;;;;;;;18.37;27.61;102581.91;16113934;19;130620;-52
2023/03/04 00:39:08;;;;;;;4.07;0.93;;;;;;;18.33;27.98;102584.22;16114201;19;130740;-43
2023/03/04 00:44:30;;;;;;;3.28;0.93;;;;;;;18.31;27.60;102589.13;16113919;19;131373;-43
2023/03/04 00:49:52;;;;;;;5.25;1.00;;;;;;;18.27;27.93;102594.22;16115801;19;129360;-42
2023/03/04 00:55:13;;;;;;;4.40;0.85;;;;;;;18.24;27.75;102588.19;16111418;19;131119;-46
2023/03/04 01:00:35;;;;;;;4.97;0.98;;;;;;;18.20;28.09;102587.75;16110960;19;130109;-43
2023/03/04 01:05:58;;;;;;;3.20;0.82;;;;;;;18.18;27.93;102586.25;16106016;19;130532;-42
2023/03/04 01:11:20;;;;;;;3.65;0.90;;;;;;;18.17;28.18;102590.09;16115759;19;130095;-44
2023/03/04 01:16:42;;;;;;;4.18;1.10;;;;;;;18.14;27.97;102588.59;16107821;19;129309;-42
2023/03/04 01:22:04;;;;;;;4.43;1.10;;;;;;;18.09;27.71;102591.94;16103351;19;129939;-44
2023/03/04 01:27:25;;;;;;;3.40;1.10;;;;;;;18.08;28.21;102587.47;16114055;19;129463;-43
2023/03/04 01:32:47;;;;;;;3.28;0.98;;;;;;;18.05;27.79;102587.00;16128977;19;130346;-42
2023/03/04 01:38:09;;;;;;;3.25;0.93;;;;;;;18.03;27.87;102567.84;16125094;19;129560;-42
2023/03/04 01:43:31;;;;;;;3.00;1.10;;;;;;;17.98;28.22;102565.66;16127369;19;130264;-42
2023/03/04 01:48:53;;;;;;;3.13;0.95;;;;;;;17.97;28.19;102554.81;16127580;19;129884;-42
2023/03/04 01:54:15;;;;;;;6.72;1.25;;;;;;;17.95;27.83;102554.16;16125933;19;129467;-41
2023/03/04 01:59:37;;;;;;;4.65;0.93;;;;;;;17.92;28.15;102544.31;16125093;19;130291;-45
2023/03/04 02:04:59;;;;;;;3.70;1.00;;;;;;;17.91;28.09;102541.75;16125216;19;129820;-42
2023/03/04 02:10:21;;;;;;;4.43;0.93;;;;;;;17.89;28.23;102535.56;16125499;19;129671;-43
2023/03/04 02:15:46;;;;;;;3.78;0.93;;;;;;;17.87;28.34;102529.38;16119941;19;131029;-43
2023/03/04 02:21:17;;;;;;;3.17;0.93;;;;;;;17.84;28.12;102531.50;16124500;19;129657;-43
2023/03/04 02:26:42;;;;;;;2.83;0.88;;;;;;;17.81;27.96;102520.81;16119436;19;130132;-42
2023/03/04 02:32:04;;;;;;;3.70;0.85;;;;;;;17.79;28.42;102520.16;16120134;19;129859;-44
2023/03/04 02:37:25;;;;;;;2.78;0.95;;;;;;;17.78;27.92;102515.69;16120977;19;130339;-46
2023/03/04 02:42:47;;;;;;;2.13;0.70;;;;;;;17.76;28.14;102503.13;16120313;19;129616;-44
2023/03/04 02:48:10;;;;;;;4.07;0.98;;;;;;;17.74;28.02;102503.28;16123508;19;129542;-44
2023/03/04 02:53:32;;;;;;;6.20;1.25;;;;;;;17.72;28.08;102510.09;16122187;19;131335;-42
2023/03/04 02:58:54;;;;;;;5.85;1.30;;;;;;;17.70;28.08;102504.78;16122801;19;130848;-45
2023/03/04 03:04:17;;;;;;;2.85;0.75;;;;;;;17.68;27.83;102504.13;16119911;19;131524;-43
2023/03/04 03:09:39;;;;;;;5.07;1.08;;;;;;;17.64;28.04;102495.38;16123628;19;130321;-42
2023/03/04 03:15:01;;;;;;;4.95;1.10;;;;;;;17.62;28.14;102496.59;16121422;19;130145;-42
2023/03/04 03:20:23;;;;;;;5.30;1.20;;;;;;;17.59;28.14;102491.50;16116233;19;129383;-43
2023/03/04 03:25:44;;;;;;;4.75;1.10;;;;;;;17.57;28.23;102491.69;16115396;19;130518;-44
2023/03/04 03:31:06;;;;;;;4.85;1.20;;;;;;;17.56;28.19;102484.44;16114748;19;129740;-42
2023/03/04 03:36:28;;;;;;;3.15;1.13;;;;;;;17.56;28.24;102491.88;16118918;19;130935;-46
2023/03/04 03:41:50;;;;;;;3.55;1.10;;;;;;;17.56;28.08;102497.41;16119855;19;129721;-43
2023/03/04 03:47:12;;;;;;;3.97;1.00;;;;;;;17.53;27.83;102499.50;16117832;19;130968;-42
2023/03/04 03:52:34;;;;;;;2.22;1.02;;;;;;;17.52;28.04;102496.94;16117100;19;129035;-42
2023/03/04 03:57:56;;;;;;;4.18;1.10;;;;;;;17.49;27.89;102495.41;16114077;19;129782;-43
2023/03/04 04:03:18;;;;;;;5.78;1.17;;;;;;;17.47;27.77;102492.00;16115696;19;129902;-42
2023/03/04 04:08:40;;;;;;;6.20;1.33;;;;;;;17.46;28.06;102495.84;16114271;19;130731;-43
2023/03/04 04:14:01;;;;;;;4.13;1.05;;;;;;;17.45;28.08;102505.19;16113956;19;131529;-42
2023/03/04 04:19:23;;;;;;;5.57;1.40;;;;;;;17.42;27.77;102500.03;16114714;19;130576;-44
2023/03/04 04:24:46;;;;;;;4.63;1.05;;;;;;;17.41;27.79;102497.50;16114965;19;131018;-43
2023/03/04 04:30:08;;;;;;;6.70;1.40;;;;;;;17.37;27.77;102492.34;16113864;19;129678;-46
2023/03/04 04:35:32;;;;;;;4.53;1.00;;;;;;;17.36;27.84;102495.28;16114673;19;130143;-46
2023/03/04 04:40:56;;;;;;;3.65;0.90;;;;;;;17.34;27.76;102495.50;16118084;19;131058;-42
2023/03/04 04:46:18;;;;;;;5.20;1.48;;;;;;;17.33;28.04;102506.78;16114579;19;129543;-42
2023/03/04 04:51:40;;;;;;;5.45;1.30;;;;;;;17.32;27.94;102500.38;16115409;19;129787;-44
2023/03/04 04:57:02;;;;;;;4.13;1.02;;;;;;;17.30;28.13;102509.94;16111912;19;130955;-43
2023/03/04 05:02:24;;;;;;;5.65;1.13;;;;;;;17.28;28.09;102507.38;16114548;19;129264;-48
2023/03/04 05:07:45;;;;;;;5.15;1.13;;;;;;;17.27;28.03;102507.56;16128949;19;129795;-47
2023/03/04 05:13:07;;;;;;;5.15;0.88;;;;;;;17.24;28.04;102508.81;16129932;19;130496;-43
2023/03/04 05:18:29;;;;;;;3.90;1.20;;;;;;;17.23;27.57;102502.41;16129372;19;129685;-50
2023/03/04 05:23:51;;;;;;;4.45;0.95;;;;;;;17.22;28.15;102506.25;16126766;19;131121;-53
2023/03/04 05:29:13;;;;;;;4.65;1.10;;;;;;;17.21;27.86;102501.78;16128707;19;129112;-52
2023/03/04 05:34:35;;;;;;;4.82;1.15;;;;;;;17.20;27.79;102502.84;16125208;19;129899;-51
2023/03/04 05:39:56;;;;;;;6.65;1.20;;;;;;;17.20;28.08;102496.44;16127274;19;129407;-44
2023/03/04 05:45:18;;;;;;;2.58;0.88;;;;;;;17.19;27.81;102500.25;16127129;19;130209;-44
2023/03/04 05:50:40;;;;;;;1.98;0.68;;;;;;;17.19;27.73;102501.13;16127167;19;130022;-46
2023/03/04 05:56:10;;;;;;;4.40;1.27;;;;;;;17.19;27.81;102511.31;16128918;19;130450;-42
2023/03/04 06:01:31;;;;;;;2.97;0.98;;;;;;;17.17;27.82;102511.53;16124505;19;131844;-46
2023/03/04 06:06:53;;;;;;;2.67;0.75;;;;;;;17.17;27.85;102505.16;16125289;19;129594;-44
2023/03/04 06:12:15;;;;;;;2.60;0.52;;;;;;;17.16;27.77;102512.56;16125644;19;130353;-44
2023/03/04 06:17:39;;;;;;;2.58;0.93;;;;;;;17.15;28.28;102505.31;16121492;19;129719;-42
2023/03/04 06:23:03;;;;;;;3.38;1.00;;;;;;;17.15;27.80;102510.84;16129109;19;129599;-43
2023/03/04 06:28:25;;;;;;;4.05;1.05;;;;;;;17.14;28.08;102513.84;16123391;19;129672;-47
2023/03/04 06:33:47;;;;;;;2.05;0.70;;;;;;;17.13;28.27;102518.50;16123077;19;129230;-42
2023/03/04 06:39:09;;;;;;;3.08;0.52;;;;;;;17.15;28.07;102521.06;16125300;19;130764;-45
2023/03/04 06:44:31;;;;;;;2.72;0.70;;;;;;;17.21;27.97;102532.22;16120860;19;130022;-42
2023/03/04 06:49:53;;;;;;;10.25;1.02;;;;;;;17.28;28.04;102532.28;16111087;19;131812;-45
2023/03/04 06:55:15;;;;;;;8.45;1.10;;;;;;;17.50;28.57;102530.31;16118004;19;132098;-42
2023/03/04 07:00:36;;;;;;;6.00;1.33;;;;;;;17.98;28.44;102537.09;16116102;19;130885;-39
2023/03/04 07:05:58;;;;;;;9.32;1.20;;;;;;;18.61;28.30;102548.16;16119438;19;130222;-41
2023/03/04 07:11:21;;;;;;;5.60;0.90;;;;;;;19.14;27.99;102554.06;16119442;19;129962;-40
2023/03/04 07:16:42;;;;;;;3.50;1.13;;;;;;;19.49;27.30;102546.47;16118838;19;130332;-41
2023/03/04 07:22:05;;;;;;;4.68;1.20;;;;;;;19.71;27.04;102548.16;16116611;19;129379;-45
2023/03/04 07:27:26;;;;;;;3.90;1.25;;;;;;;19.77;27.15;102562.06;16118186;19;129800;-42
2023/03/04 07:32:48;;;;;;;6.55;1.38;;;;;;;19.74;27.04;102561.63;16121152;19;129398;-41
2023/03/04 07:38:10;;;;;;;8.13;1.33;;;;;;;19.65;26.92;102564.63;16121608;19;130346;-42
2023/03/04 07:43:32;;;;;;;7.40;1.27;;;;;;;19.56;26.93;102562.28;16119367;19;130352;-42
2023/03/04 07:48:55;;;;;;;7.47;1.38;;;;;;;19.44;27.35;102573.16;16117355;19;129445;-46
2023/03/04 07:54:18;;;;;;;6.68;1.58;;;;;;;19.33;27.62;102581.03;16114207;19;130657;-39
2023/03/04 07:59:40;;;;;;;5.43;1.00;;;;;;;19.25;27.73;102574.84;16115388;19;129696;-40
2023/03/04 08:05:02;;;;;;;6.03;1.30;;;;;;;19.19;27.38;102582.06;16115701;19;130143;-40
2023/03/04 08:10:24;;;;;;;4.75;1.00;;;;;;;19.11;27.51;102583.09;16110890;19;129531;-40
2023/03/04 08:15:46;;;;;;;6.22;1.35;;;;;;;19.04;27.80;102591.41;16117759;19;130456;-42
2023/03/04 08:21:10;;;;;;;3.63;0.90;;;;;;;19.02;27.78;102604.63;16116092;19;129773;-44
2023/03/04 08:26:37;;;;;;;6.65;1.10;;;;;;;19.05;27.74;102595.91;16110927;19;129801;-44
2023/03/04 08:32:01;;;;;;;5.28;1.13;;;;;;;19.25;27.84;102589.56;16114789;19;129165;-42
2023/03/04 08:37:23;;;;;;;4.60;1.23;;;;;;;19.51;27.47;102604.56;16111326;19;130546;-43
2023/03/04 08:42:44;;;;;;;7.18;1.33;;;;;;;19.77;27.06;102600.94;16112577;19;131586;-42
2023/03/04 08:48:06;;;;;;;6.40;1.35;;;;;;;20.09;26.67;102603.09;16109877;19;129536;-45
2023/03/04 08:53:28;;;;;;;4.03;1.48;;;;;;;20.39;26.35;102597.06;16112023;19;131265;-46
2023/03/04 08:58:50;;;;;;;5.90;1.02;;;;;;;20.75;26.03;102596.53;16110047;19;132527;-45
2023/03/04 09:04:11;;;;;;;5.10;1.15;;;;;;;21.00;26.25;102589.38;16111487;19;130224;-44
2023/03/04 09:09:33;;;;;;;3.78;1.00;;;;;;;21.12;25.67;102595.06;16109533;19;129671;-47
2023/03/04 09:14:55;;;;;;;6.85;1.17;;;;;;;21.15;25.92;102597.41;16110894;19;130863;-44
2023/03/04 09:20:31;;;;;;;4.75;0.75;;;;;;;21.13;25.93;102603.22;16116195;19;129928;-46
2023/03/04 09:25:53;;;;;;;6.43;1.40;;;;;;;21.07;26.08;102604.09;16111756;19;131502;-44
2023/03/04 09:31:15;;;;;;;5.47;1.05;;;;;;;20.94;26.03;102593.88;16113069;19;130783;-45
2023/03/04 09:36:37;;;;;;;5.47;0.95;;;;;;;20.79;25.75;102596.09;16109167;19;130489;-43
2023/03/04 09:42:00;;;;;;;3.58;1.20;;;;;;;20.65;26.26;102600.84;16111693;19;130202;-44
2023/03/04 09:47:25;;;;;;;3.90;1.08;;;;;;;20.52;26.15;102596.16;16112745;19;129690;-45
2023/03/04 09:53:13;;;;;;;5.20;0.90;;;;;;;20.39;26.25;102591.50;16125591;19;130375;-43
2023/03/04 09:59:02;;;;;;;3.95;0.80;;;;;;;20.26;26.61;102595.16;16128466;19;130528;-44
2023/03/04 10:04:39;;;;;;;4.70;0.85;;;;;;;20.18;26.67;102593.47;16123755;19;131131;-43
2023/03/04 10:10:09;;;;;;;4.88;0.93;;;;;;;20.09;26.50;102592.84;16123107;19;129474;-45
2023/03/04 10:15:47;;;;;;;4.30;1.00;;;;;;;20.04;26.58;102583.44;16123582;19;130542;-46
2023/03/04 10:21:20;;;;;;;4.40;0.77;;;;;;;19.98;26.47;102580.41;16126227;19;129513;-46
2023/03/04 10:26:44;;;;;;;1.42;0.63;;;;;;;19.88;26.91;102576.38;16122000;19;130867;-43
2023/03/04 10:32:12;;;;;;;2.57;1.17;;;;;;;19.79;26.98;102576.59;16124040;19;129696;-46
2023/03/04 10:37:49;;;;;;;2.47;1.02;;;;;;;19.78;26.53;102571.25;16120806;19;129948;-46
2023/03/04 10:43:14;;;;;;;2.20;0.70;;;;;;;19.72;27.01;102567.41;16120010;19;129086;-46
2023/03/04 10:48:39;;;;;;;2.67;0.80;;;;;;;19.66;26.86;102560.78;16120752;19;129561;-44
2023/03/04 10:54:30;;;;;;;3.60;1.08;;;;;;;19.62;26.90;102561.44;16121323;19;129873;-43
2023/03/04 10:59:57;;;;;;;2.65;0.73;;;;;;;19.58;26.73;102547.09;16121206;19;131713;-44
2023/03/04 11:05:25;;;;;;;2.45;0.70;;;;;;;19.50;27.02;102552.88;16116685;19;130414;-45
2023/03/04 11:10:50;;;;;;;1.60;0.60;;;;;;;19.45;26.75;102553.53;16121418;19;129812;-43
2023/03/04 11:16:26;;;;;;;;;;;;;;;19.36;27.30;102538.97;16122764;19;130084;-44
2023/03/04 11:21:49;;;;;;;2.63;0.88;;;;;;;19.34;27.33;102546.66;16119303;19;130557;-44
2023/03/04 11:27:26;;;;;;;2.10;0.50;;;;;;;19.32;27.33;102526.59;16118801;19;129477;-43
2023/03/04 11:32:50;;;;;;;;;;;;;;;19.27;27.41;102523.63;16119127;19;131501;-44
2023/03/04 11:38:19;;;;;;;1.73;0.70;;;;;;;19.36;27.49;102513.16;16120964;19;129231;-41
2023/03/04 11:43:44;;;;;;;3.78;0.68;;;;;;;19.38;27.17;102517.44;16116994;19;130810;-42
2023/03/04 11:49:08;;;;;;;4.10;0.73;;;;;;;19.42;27.32;102508.69;16122446;19;130091;-45
2023/03/04 11:54:57;;;;;;;3.67;0.60;;;;;;;19.45;27.18;102508.25;16119124;19;129916;-43
2023/03/04 12:00:56;;;;;;;1.13;0.40;;;;;;;19.57;26.89;102500.13;16112937;19;131753;-44
2023/03/04 12:06:35;;;;;;;4.20;0.85;;;;;;;19.81;26.65;102496.69;16115415;19;130029;-43
2023/03/04 12:12:34;;;;;;;2.22;0.95;;;;;;;20.09;26.35;102492.81;16115443;19;129936;-42
2023/03/04 12:18:25;;;;;;;2.85;1.10;;;;;;;20.37;26.23;102477.72;16116023;19;129334;-43
2023/03/04 12:23:47;;;;;;;10.15;4.45;;;;;;;20.63;26.47;102464.78;16116353;19;129759;-43
2023/03/04 12:29:11;;;;;;;30.67;13.88;;;;;;;20.81;26.50;102460.44;16115402;19;130198;-42
2023/03/04 12:34:54;;;;;;;19.35;9.95;;;;;;;20.85;26.55;102462.53;16112985;19;130522;-44
2023/03/04 12:40:52;;;;;;;19.48;10.43;;;;;;;20.77;26.49;102448.91;16115515;19;130909;-43
2023/03/04 12:46:20;;;;;;;20.65;10.15;;;;;;;20.67;26.70;102445.75;16112418;19;129667;-41
2023/03/04 12:51:52;;;;;;;24.80;11.25;;;;;;;20.57;26.98;102437.88;16112251;19;129497;-42
2023/03/04 12:57:20;;;;;;;15.73;8.93;;;;;;;20.45;26.58;102432.16;16115731;19;129595;-43
2023/03/04 13:02:51;;;;;;;18.75;9.82;;;;;;;20.33;26.93;102432.03;16112439;19;129460;-41
2023/03/04 13:08:36;;;;;;;20.67;8.52;;;;;;;20.21;27.20;102426.28;16114697;19;129445;-43
2023/03/04 13:14:08;;;;;;;15.82;7.75;;;;;;;20.10;26.99;102424.19;16114347;19;130734;-41
2023/03/04 13:19:49;;;;;;;14.50;6.50;;;;;;;19.97;27.25;102425.94;16113751;19;130492;-45
2023/03/04 13:25:48;;;;;;;13.25;6.18;;;;;;;19.89;27.15;102420.63;16120327;19;130367;-43
2023/03/04 13:31:17;;;;;;;8.48;4.50;;;;;;;19.81;27.32;102407.00;16127175;19;130986;-45
2023/03/04 13:36:53;;;;;;;10.70;5.20;;;;;;;19.75;27.10;102402.28;16126752;19;129828;-42
2023/03/04 13:42:39;;;;;;;10.70;5.00;;;;;;;19.67;27.10;102395.03;16122656;19;130264;-40
2023/03/04 13:48:03;;;;;;;7.43;3.63;;;;;;;19.56;27.59;102393.81;16122826;19;131770;-42
2023/03/04 13:53:59;;;;;;;9.33;3.20;;;;;;;19.52;27.56;102381.41;16123632;19;130124;-46
2023/03/04 13:59:43;;;;;;;8.07;3.17;;;;;;;19.56;27.88;102388.25;16122393;19;130751;-43
2023/03/04 14:05:05;;;;;;;6.75;2.90;;;;;;;19.72;27.59;102380.50;16124379;19;131053;-41
2023/03/04 14:10:27;;;;;;;6.85;3.47;;;;;;;19.91;27.33;102374.03;16121590;19;129583;-42
2023/03/04 14:15:55;;;;;;;5.38;2.95;;;;;;;20.09;27.11;102366.94;16123322;19;133054;-42
2023/03/04 14:21:17;;;;;;;5.03;2.38;;;;;;;20.23;27.42;102363.00;16124469;19;131302;-42
2023/03/04 14:26:39;;;;;;;3.65;2.38;;;;;;;20.37;27.15;102357.38;16122823;19;129960;-41
2023/03/04 14:32:04;;;;;;;4.18;2.40;;;;;;;20.48;27.26;102356.66;16122080;19;130887;-41
2023/03/04 14:37:33;;;;;;;6.03;2.27;;;;;;;20.54;27.04;102341.88;16119363;19;131244;-43
2023/03/04 14:43:00;;;;;;;5.53;2.00;;;;;;;20.55;27.04;102346.38;16120138;19;131036;-42
2023/03/04 14:48:29;;;;;;;3.28;2.08;;;;;;;20.50;27.19;102340.63;16116931;19;130645;-43
2023/03/04 14:53:55;;;;;;;4.22;2.28;;;;;;;20.39;27.52;102325.50;16122737;19;129640;-41
2023/03/04 14:59:16;;;;;;;4.82;1.73;;;;;;;20.26;27.30;102326.44;16119640;19;129480;-43
2023/03/04 15:04:39;;;;;;;3.95;1.75;;;;;;;20.16;27.88;102317.75;16115535;19;129941;-54
2023/03/04 15:10:05;;;;;;;3.88;2.10;;;;;;;20.08;27.81;102320.78;16113252;19;130434;-51
2023/03/04 15:15:39;;;;;;;5.93;2.20;;;;;;;19.95;27.85;102314.19;16108059;19;130428;-50
2023/03/04 15:21:25;;;;;;;13.30;3.45;;;;;;;19.87;28.66;102302.50;16117795;19;130526;-50
2023/03/04 15:26:49;;;;;;;12.47;2.70;;;;;;;19.83;28.60;102310.41;16119520;19;130725;-45
2023/03/04 15:32:10;;;;;;;10.60;2.75;;;;;;;19.98;28.48;102304.56;16115069;19;129446;-42
2023/03/04 15:37:33;;;;;;;8.75;2.10;;;;;;;20.16;28.10;102303.00;16116400;19;129829;-45
2023/03/04 15:42:56;;;;;;;7.40;2.15;;;;;;;20.42;28.58;102291.69;16113772;19;132635;-41
2023/03/04 15:48:19;;;;;;;9.02;2.13;;;;;;;20.76;27.60;102297.03;16111072;19;131527;-44
2023/03/04 15:53:44;;;;;;;7.32;1.80;;;;;;;21.03;27.50;102296.78;16115558;19;130558;-47
2023/03/04 15:59:12;;;;;;;9.85;2.10;;;;;;;21.16;27.75;102285.50;16108941;19;129533;-52
2023/03/04 16:04:33;;;;;;;9.48;1.77;;;;;;;21.09;27.71;102284.72;16106971;19;131275;-48
2023/03/04 16:10:01;;;;;;;7.40;1.98;;;;;;;21.01;27.85;102276.69;16116470;19;129997;-48
2023/03/04 16:15:26;;;;;;;9.18;1.77;;;;;;;20.90;28.20;102265.22;16120846;19;130967;-53
2023/03/04 16:20:48;;;;;;;8.83;1.77;;;;;;;20.79;28.36;102279.88;16114547;19;129697;-52
2023/03/04 16:26:19;;;;;;;4.35;1.50;;;;;;;20.67;28.21;102271.38;16107986;19;129872;-49
2023/03/04 16:31:41;;;;;;;6.13;1.55;;;;;;;20.59;28.33;102280.03;16112153;19;129943;-42
2023/03/04 16:37:11;;;;;;;6.72;1.95;;;;;;;20.58;28.27;102261.66;16115363;19;129296;-43
2023/03/04 16:42:32;;;;;;;11.00;1.33;;;;;;;20.79;28.38;102265.97;16112438;19;130655;-42
2023/03/04 16:47:55;;;;;;;6.25;1.10;;;;;;;21.13;27.80;102263.69;16110869;19;130877;-44
2023/03/04 16:53:30;;;;;;;2.17;1.00;;;;;;;21.51;27.42;102259.00;16115255;19;130607;-45
2023/03/04 16:58:55;;;;;;;5.35;1.10;;;;;;;21.81;27.19;102263.75;16115355;19;129620;-45
2023/03/04 17:04:17;;;;;;;;;;;;;;;22.04;26.37;102265.75;16130626;19;130505;-42
2023/03/04 17:09:40;;;;;;;5.53;1.50;;;;;;;22.29;26.80;102273.13;16127414;19;131794;-43
2023/03/04 17:15:03;;;;;;;2.00;0.95;;;;;;;22.49;26.24;102269.19;16128456;19;129333;-47
2023/03/04 17:20:24;;;;;;;2.78;1.00;;;;;;;22.65;26.05;102264.84;16127011;19;131059;-45
2023/03/04 17:25:54;;;;;;;4.57;0.70;;;;;;;22.79;25.78;102268.22;16128394;19;131253;-43
2023/03/04 17:31:18;;;;;;;3.60;0.90;;;;;;;22.84;26.07;102263.63;16125913;19;129630;-44
2023/03/04 17:36:40;;;;;;;2.10;0.52;;;;;;;22.84;26.31;102277.56;16123194;19;130054;-45
2023/03/04 17:42:03;;;;;;;4.75;0.90;;;;;;;22.70;26.52;102281.72;16117476;19;129327;-43
2023/03/04 17:47:25;;;;;;;9.13;1.40;;;;;;;22.52;26.76;102291.88;16120796;19;129964;-45
2023/03/04 17:52:47;;;;;;;4.53;0.80;;;;;;;22.33;27.18;102288.31;16120781;19;130411;-40
2023/03/04 17:58:10;;;;;;;5.35;1.13;;;;;;;22.12;27.34;102293.31;16128171;19;130709;-48
2023/03/04 18:03:32;;;;;;;6.13;0.82;;;;;;;21.93;27.16;102295.31;16123815;19;129639;-42
2023/03/04 18:08:54;;;;;;;6.05;1.05;;;;;;;21.71;27.53;102297.72;16120241;19;131458;-41
2023/03/04 18:14:16;;;;;;;8.68;1.02;;;;;;;21.51;27.91;102297.97;16116691;19;129574;-38
2023/03/04 18:19:38;;;;;;;9.18;1.42;;;;;;;21.35;27.68;102305.00;16124460;19;130622;-41
2023/03/04 18:25:00;;;;;;;9.18;1.20;;;;;;;21.20;27.84;102299.81;16122961;19;129836;-44
2023/03/04 18:30:26;;;;;;;8.40;1.25;;;;;;;21.08;28.09;102304.44;16122740;19;129313;-42
2023/03/04 18:35:48;;;;;;;;;;;;;;;20.94;27.91;102300.91;16122293;19;130754;-45
2023/03/04 18:41:12;;;;;;;7.07;1.45;;;;;;;20.85;27.88;102300.38;16121653;19;131141;-45
2023/03/04 18:46:46;;;;;;;8.32;1.00;;;;;;;20.76;28.01;102302.59;16088036;19;130585;-41
2023/03/04 18:52:08;;;;;;;6.32;1.30;;;;;;;20.64;28.19;102310.78;16123779;19;130274;-50
2023/03/04 18:57:30;;;;;;;11.32;1.73;;;;;;;20.56;28.11;102311.91;16118241;19;131205;-46
2023/03/04 19:03:05;;;;;;;8.38;1.25;;;;;;;20.57;28.40;102315.53;16120483;19;129594;-43
2023/03/04 19:08:27;;;;;;;9.38;1.35;;;;;;;20.81;28.03;102311.09;16114065;19;129199;-43
2023/03/04 19:13:50;;;;;;;4.22;1.00;;;;;;;21.22;27.75;102306.00;16114638;19;129872;-43
2023/03/04 19:19:13;;;;;;;6.18;0.88;;;;;;;21.60;27.31;102312.44;16119797;19;131497;-44
2023/03/04 19:24:35;;;;;;;12.77;1.13;;;;;;;21.81;27.08;102303.59;16118135;19;131300;-49
2023/03/04 19:29:57;;;;;;;10.15;1.20;;;;;;;21.88;27.38;102306.28;16115354;19;130573;-45
2023/03/04 19:35:19;;;;;;;7.72;0.95;;;;;;;21.87;27.20;102300.97;16116382;19;129531;-45
2023/03/04 19:40:42;;;;;;;10.30;1.10;;;;;;;21.81;27.30;102298.03;16117241;19;130194;-44
2023/03/04 19:46:08;;;;;;;10.85;1.77;;;;;;;21.70;27.08;102295.19;16114923;19;130425;-43
2023/03/04 19:51:31;;;;;;;12.70;1.30;;;;;;;21.62;27.61;102304.72;16117943;19;133738;-42
2023/03/04 19:56:53;;;;;;;10.68;1.17;;;;;;;21.48;27.73;102296.47;16116340;19;130468;-44
2023/03/04 20:02:15;;;;;;;6.57;0.85;;;;;;;21.42;27.83;102293.78;16109360;19;131175;-44
2023/03/04 20:07:38;;;;;;;12.45;1.90;;;;;;;21.39;27.41;102295.09;16113651;19;129304;-42
2023/03/04 20:13:00;;;;;;;29.58;2.63;;;;;;;21.37;27.69;102294.47;16114719;19;129541;-43
2023/03/04 20:18:22;;;;;;;44.10;3.83;;;;;;;21.32;28.05;102288.75;16114909;19;129795;-44
2023/03/04 20:23:44;;;;;;;33.35;2.47;;;;;;;21.32;27.86;102283.19;16115759;19;129972;-44
2023/03/04 20:29:05;;;;;;;34.30;3.15;;;;;;;21.42;28.08;102294.63;16115603;19;131616;-45
2023/03/04 20:34:27;;;;;;;28.80;3.40;;;;;;;21.54;27.76;102299.47;16108971;19;129648;-46
2023/03/04 20:39:50;;;;;;;17.63;2.05;;;;;;;21.65;27.41;102296.72;16108539;19;130782;-43
2023/03/04 20:45:11;;;;;;;17.42;2.10;;;;;;;21.75;27.70;102304.53;16114239;19;129066;-43
2023/03/04 20:50:33;;;;;;;17.60;1.73;;;;;;;21.87;27.39;102309.31;16112382;19;130183;-44
2023/03/04 20:56:02;;;;;;;10.73;1.35;;;;;;;22.02;27.25;102318.13;16112296;19;131397;-45
2023/03/04 21:01:24;;;;;;;11.75;1.20;;;;;;;22.11;27.22;102308.34;16113660;19;130068;-45
2023/03/04 21:06:47;;;;;;;19.02;1.95;;;;;;;22.23;27.07;102307.56;16110176;19;130097;-44
2023/03/04 21:12:09;;;;;;;11.77;1.52;;;;;;;22.28;27.13;102296.53;16114140;19;131684;-44
2023/03/04 21:17:31;;;;;;;10.85;1.40;;;;;;;22.28;26.96;102289.03;16110299;19;130058;-43
2023/03/04 21:22:52;;;;;;;14.27;1.17;;;;;;;22.24;27.21;102295.31;16109574;19;130762;-47
2023/03/04 21:28:14;;;;;;;9.35;1.17;;;;;;;22.18;27.09;102290.66;16109284;19;129920;-44
2023/03/04 21:33:36;;;;;;;14.45;1.17;;;;;;;22.12;26.88;102286.88;16106308;19;130020;-46
2023/03/04 21:38:58;;;;;;;10.70;1.17;;;;;;;22.07;27.29;102282.00;16110863;19;130602;-48
2023/03/04 21:44:20;;;;;;;13.27;1.88;;;;;;;21.98;27.27;102280.66;16113174;19;131388;-44
2023/03/04 21:49:53;;;;;;;7.07;0.95;;;;;;;21.85;27.64;102273.31;16125610;19;130246;-44
2023/03/04 21:55:15;;;;;;;30.42;2.08;;;;;;;21.76;27.68;102274.75;16119724;19;131314;-46
2023/03/04 22:00:37;;;;;;;11.95;1.35;;;;;;;21.63;27.83;102282.19;16120950;19;129607;-43
2023/03/04 22:06:04;;;;;;;11.27;1.15;;;;;;;21.50;27.60;102274.88;16121550;19;131718;-47
2023/03/04 22:11:26;;;;;;;11.57;1.00;;;;;;;21.34;27.71;102276.31;16120179;19;129268;-45
2023/03/04 22:16:51;;;;;;;6.45;1.23;;;;;;;21.20;28.22;102270.03;16123068;19;129543;-43
2023/03/04 22:22:17;;;;;;;5.83;0.90;;;;;;;21.09;28.00;102261.63;16114644;19;129882;-45
2023/03/04 22:27:39;;;;;;;7.50;0.80;;;;;;;20.96;28.11;102257.03;16118835;19;130915;-43
2023/03/04 22:33:01;;;;;;;2.72;0.68;;;;;;;20.85;28.11;102262.28;16119354;19;129337;-43
2023/03/04 22:38:23;;;;;;;6.45;1.40;;;;;;;20.73;27.96;102258.50;16121324;19;130381;-45
2023/03/04 22:43:46;;;;;;;2.45;0.50;;;;;;;20.64;28.49;102254.31;16118224;19;129966;-43
2023/03/04 22:49:11;;;;;;;3.63;0.60;;;;;;;20.55;28.32;102239.84;16114145;19;131325;-44
2023/03/04 22:54:33;;;;;;;5.43;0.70;;;;;;;20.46;28.40;102242.06;16117623;19;129448;-42
2023/03/04 22:59:54;;;;;;;3.20;0.40;;;;;;;20.37;28.41;102248.97;16117033;19;132084;-45
2023/03/04 23:05:19;;;;;;;3.40;0.80;;;;;;;20.28;28.26;102249.28;16114999;19;129332;-44
2023/03/04 23:10:41;;;;;;;3.60;0.70;;;;;;;20.20;28.55;102243.13;16117080;19;129745;-43
2023/03/04 23:16:06;;;;;;;2.63;0.47;;;;;;;20.14;28.49;102239.31;16117200;19;129943;-46
2023/03/04 23:21:32;;;;;;;3.38;0.43;;;;;;;20.07;28.38;102233.81;16121534;19;129554;-42
2023/03/04 23:26:54;;;;;;;2.75;0.50;;;;;;;20.02;28.38;102235.56;16121781;19;130956;-46
2023/03/04 23:32:16;;;;;;;2.97;0.52;;;;;;;19.95;28.76;102230.84;16116204;19;130071;-43
2023/03/04 23:37:38;;;;;;;2.22;0.45;;;;;;;19.88;28.45;102232.84;16117364;19;130443;-42
2023/03/04 23:43:00;;;;;;;1.58;0.30;;;;;;;19.83;28.56;102235.41;16114875;19;129780;-48
2023/03/04 23:48:22;;;;;;;3.13;0.40;;;;;;;19.76;28.62;102221.56;16117805;19;130014;-44
2023/03/04 23:53:44;;;;;;;2.78;0.30;;;;;;;19.73;28.52;102221.16;16114726;19;131672;-45
2023/03/04 23:59:06;;;;;;;1.42;0.43;;;;;;;19.67;29.01;102220.13;16112244;19;130884;-46
